createdAt,value
2022-11-20T00:00:30.713Z,78.78
2022-11-20T00:04:31.735Z,79.40
2022-11-20T00:08:30.221Z,80.20
2022-11-20T00:12:28.963Z,80.50
2022-11-20T00:16:28.695Z,79.69
2022-11-20T00:20:27.457Z,78.82
2022-11-20T00:24:25.987Z,80.45
2022-11-20T00:28:24.835Z,79.62
2022-11-20T00:32:23.698Z,78.96
2022-11-20T00:36:24.113Z,78.58
2022-11-20T00:40:23.272Z,78.94
2022-11-20T00:44:21.934Z,79.85
2022-11-20T00:48:20.524Z,79.82
2022-11-20T00:52:19.633Z,80.39
2022-11-20T00:56:19.320Z,81.61
2022-11-20T01:00:18.227Z,82.38
2022-11-20T01:04:17.427Z,82.51
2022-11-20T01:08:16.312Z,82.98
2022-11-20T01:12:16.007Z,82.61
2022-11-20T01:16:19.374Z,82.71
2022-11-20T01:20:18.503Z,82.41
2022-11-20T01:24:18.390Z,82.55
2022-11-20T01:28:17.411Z,82.90
2022-11-20T01:32:16.310Z,82.70
2022-11-20T01:36:16.247Z,82.29
2022-11-20T01:40:15.186Z,82.14
2022-11-20T01:44:16.492Z,82.09
2022-11-20T01:48:16.072Z,81.82
2022-11-20T01:52:25.919Z,81.74
2022-11-20T01:56:42.151Z,82.18
2022-11-20T02:00:41.599Z,82.48
2022-11-20T02:04:56.168Z,81.94
2022-11-20T02:09:15.167Z,82.30
2022-11-20T02:12:52.183Z,82.78
2022-11-20T02:16:52.188Z,82.92
2022-11-20T02:21:14.256Z,83.19
2022-11-20T02:25:33.691Z,82.92
2022-11-20T02:29:09.470Z,82.86
2022-11-20T02:32:30.289Z,82.99
2022-11-20T02:36:29.870Z,83.44
2022-11-20T02:40:29.608Z,83.32
2022-11-20T02:44:28.583Z,83.16
2022-11-20T02:48:30.231Z,83.30
2022-11-20T02:52:32.260Z,83.00
2022-11-20T02:56:30.968Z,83.39
2022-11-20T03:00:29.913Z,83.23
2022-11-20T03:04:28.736Z,83.49
2022-11-20T03:08:27.604Z,83.35
2022-11-20T03:12:26.885Z,83.80
2022-11-20T03:16:26.085Z,83.23
2022-11-20T03:20:25.388Z,82.84
2022-11-20T03:24:24.333Z,82.24
2022-11-20T03:28:23.253Z,81.57
2022-11-20T03:32:35.802Z,81.01
2022-11-20T03:36:35.365Z,80.72
2022-11-20T03:40:36.089Z,81.04
2022-11-20T03:44:37.630Z,81.64
2022-11-20T03:48:12.949Z,81.55
2022-11-20T03:52:11.689Z,81.31
2022-11-20T03:56:27.175Z,81.21
2022-11-20T04:00:28.225Z,81.11
2022-11-20T04:04:04.101Z,80.94
2022-11-20T04:08:02.870Z,80.90
2022-11-20T04:12:01.444Z,80.75
2022-11-20T04:16:00.512Z,81.10
2022-11-20T04:19:59.148Z,80.83
2022-11-20T04:23:58.748Z,80.89
2022-11-20T04:27:57.727Z,81.04
2022-11-20T04:31:56.446Z,81.33
2022-11-20T04:35:55.343Z,81.94
2022-11-20T04:39:54.465Z,82.88
2022-11-20T04:43:54.628Z,82.19
2022-11-20T04:47:53.958Z,82.66
2022-11-20T04:51:55.855Z,82.97
2022-11-20T04:56:00.119Z,83.26
2022-11-20T04:59:59.155Z,82.93
2022-11-20T05:03:58.508Z,82.71
2022-11-20T05:07:58.615Z,82.76
2022-11-20T05:11:57.396Z,82.09
2022-11-20T05:16:11.651Z,82.81
2022-11-20T05:20:11.230Z,81.88
2022-11-20T05:24:09.807Z,81.88
2022-11-20T05:28:08.602Z,81.82
2022-11-20T05:32:10.387Z,81.37
2022-11-20T05:36:10.377Z,80.99
2022-11-20T05:40:09.466Z,81.06
2022-11-20T05:44:08.601Z,80.96
2022-11-20T05:48:07.370Z,80.46
2022-11-20T05:52:06.290Z,80.25
2022-11-20T05:56:06.546Z,81.24
2022-11-20T06:00:06.744Z,81.22
2022-11-20T06:04:08.445Z,81.30
2022-11-20T06:08:08.031Z,80.78
2022-11-20T06:12:08.380Z,81.37
2022-11-20T06:16:07.929Z,81.05
2022-11-20T06:20:07.030Z,80.31
2022-11-20T06:24:06.308Z,81.26
2022-11-20T06:28:05.192Z,81.61
2022-11-20T06:32:03.894Z,80.88
2022-11-20T06:36:08.969Z,81.36
2022-11-20T06:40:10.223Z,81.64
2022-11-20T06:44:09.012Z,81.95
2022-11-20T06:48:07.749Z,82.01
2022-11-20T06:52:08.504Z,82.00
2022-11-20T06:55:47.952Z,81.63
2022-11-20T06:59:46.871Z,82.18
2022-11-20T07:03:48.006Z,81.71
2022-11-20T07:07:52.833Z,81.08
2022-11-20T07:11:51.631Z,81.19
2022-11-20T07:15:50.781Z,81.12
2022-11-20T07:19:49.633Z,81.44
2022-11-20T07:23:48.121Z,81.80
2022-11-20T07:27:46.771Z,81.36
2022-11-20T07:31:45.495Z,81.37
2022-11-20T07:35:44.575Z,81.54
2022-11-20T07:39:43.751Z,80.66
2022-11-20T07:43:42.749Z,81.58
2022-11-20T07:47:41.604Z,81.04
2022-11-20T07:51:40.614Z,81.18
2022-11-20T07:55:39.398Z,80.79
2022-11-20T07:59:38.152Z,80.96
2022-11-20T08:03:40.491Z,80.36
2022-11-20T08:07:40.804Z,80.08
2022-11-20T08:12:14.053Z,79.08
2022-11-20T08:16:14.403Z,77.83
2022-11-20T08:20:14.764Z,76.97
2022-11-20T08:24:14.725Z,77.50
2022-11-20T08:28:21.769Z,75.95
2022-11-20T08:32:21.577Z,75.26
2022-11-20T08:36:23.873Z,75.42
2022-11-20T08:40:00.564Z,74.88
2022-11-20T08:43:36.451Z,74.51
2022-11-20T08:47:35.946Z,73.27
2022-11-20T08:51:41.009Z,73.13
2022-11-20T08:55:14.596Z,72.54
2022-11-20T09:03:34.591Z,73.01
2022-11-20T09:07:33.734Z,71.95
2022-11-20T09:11:36.452Z,72.99
2022-11-20T09:15:10.913Z,73.63
2022-11-20T09:19:34.470Z,73.57
2022-11-20T09:23:33.135Z,74.26
2022-11-20T09:27:31.695Z,74.92
2022-11-20T09:31:30.909Z,74.17
2022-11-20T09:35:29.654Z,74.50
2022-11-20T09:39:28.576Z,73.26
2022-11-20T09:43:33.783Z,72.74
2022-11-20T09:47:43.554Z,72.07
2022-11-20T09:51:59.231Z,72.58
2022-11-20T09:55:59.151Z,73.63
2022-11-20T10:00:00.557Z,71.41
2022-11-20T10:04:03.009Z,68.50
2022-11-20T10:08:10.131Z,67.29
2022-11-20T10:12:09.345Z,68.11
2022-11-20T10:16:15.592Z,68.76
2022-11-20T10:20:14.949Z,70.05
2022-11-20T10:24:18.055Z,73.33
2022-11-20T10:28:16.710Z,74.89
2022-11-20T10:32:17.779Z,75.47
2022-11-20T10:36:38.533Z,74.69
2022-11-20T10:40:40.050Z,72.97
2022-11-20T10:45:04.138Z,73.25
2022-11-20T10:49:06.446Z,75.76
2022-11-20T10:53:24.623Z,76.52
2022-11-20T10:57:27.314Z,75.96
2022-11-20T11:01:27.840Z,76.51
2022-11-20T11:05:26.973Z,76.49
2022-11-20T11:09:34.078Z,72.68
2022-11-20T11:13:33.885Z,73.76
2022-11-20T11:17:34.192Z,76.15
2022-11-20T11:21:33.171Z,75.43
2022-11-20T11:25:37.014Z,76.06
2022-11-20T11:29:36.053Z,76.49
2022-11-20T11:33:48.710Z,75.63
2022-11-20T11:37:52.069Z,72.90
2022-11-20T11:41:51.308Z,71.71
2022-11-20T11:45:56.082Z,71.92
2022-11-20T11:50:21.597Z,70.57
2022-11-20T11:54:26.565Z,70.49
2022-11-20T11:58:44.509Z,70.60
2022-11-20T12:03:04.315Z,70.87
2022-11-20T12:07:38.853Z,70.35
2022-11-20T12:11:47.572Z,72.15
2022-11-20T12:15:48.146Z,72.12
2022-11-20T12:19:47.067Z,72.60
2022-11-20T12:23:56.521Z,71.09
2022-11-20T12:28:07.632Z,70.71
2022-11-20T12:32:06.636Z,70.55
2022-11-20T12:36:09.290Z,70.49
2022-11-20T12:40:29.906Z,71.27
2022-11-20T12:44:53.490Z,71.86
2022-11-20T12:49:03.624Z,72.04
2022-11-20T12:53:19.226Z,72.89
2022-11-20T12:57:37.565Z,72.11
2022-11-20T13:01:55.986Z,71.82
2022-11-20T13:05:58.794Z,72.12
2022-11-20T13:09:59.232Z,72.64
2022-11-20T13:14:01.046Z,72.85
2022-11-20T13:18:01.866Z,72.30
2022-11-20T13:22:01.317Z,73.11
2022-11-20T13:26:19.546Z,73.68
2022-11-20T13:30:21.453Z,73.64
2022-11-20T13:34:28.895Z,73.53
2022-11-20T13:38:33.833Z,73.48
2022-11-20T13:42:36.914Z,73.74
2022-11-20T13:46:37.405Z,74.61
2022-11-20T13:50:42.132Z,75.13
2022-11-20T13:54:45.204Z,75.39
2022-11-20T13:59:17.382Z,74.87
2022-11-20T14:03:25.005Z,73.31
2022-11-20T14:07:53.494Z,73.68
2022-11-20T14:11:52.843Z,74.41
2022-11-20T14:16:05.700Z,74.23
2022-11-20T14:20:06.432Z,73.64
2022-11-20T14:24:22.672Z,75.60
2022-11-20T14:27:58.772Z,76.09
2022-11-20T14:31:58.624Z,76.73
2022-11-20T14:35:59.148Z,76.41
2022-11-20T14:40:00.153Z,76.98
2022-11-20T14:44:00.296Z,77.10
2022-11-20T14:48:01.033Z,76.92
2022-11-20T14:52:04.745Z,77.72
2022-11-20T14:56:04.265Z,77.26
2022-11-20T15:00:09.912Z,77.42
2022-11-20T15:04:11.573Z,78.36
2022-11-20T15:08:12.022Z,78.51
2022-11-20T15:12:18.750Z,78.79
2022-11-20T15:16:19.851Z,78.44
2022-11-20T15:20:19.026Z,79.19
2022-11-20T15:24:18.017Z,78.91
2022-11-20T15:28:22.632Z,78.24
2022-11-20T15:32:21.699Z,78.79
2022-11-20T15:36:20.510Z,80.34
2022-11-20T15:40:19.711Z,80.89
2022-11-20T15:44:18.805Z,81.13
2022-11-20T15:48:20.807Z,81.46
2022-11-20T15:52:19.409Z,81.13
2022-11-20T15:56:18.587Z,81.18
2022-11-20T16:00:22.236Z,82.07
2022-11-20T16:04:36.725Z,81.56
2022-11-20T16:08:35.857Z,81.09
2022-11-20T16:12:53.769Z,81.27
2022-11-20T16:16:53.064Z,81.78
2022-11-20T16:20:53.769Z,81.61
2022-11-20T16:24:53.084Z,81.27
2022-11-20T16:28:52.275Z,81.43
2022-11-20T16:32:52.021Z,81.77
2022-11-20T16:36:51.228Z,82.03
2022-11-20T16:40:50.425Z,81.89
2022-11-20T16:44:50.566Z,82.07
2022-11-20T16:48:56.929Z,82.75
2022-11-20T16:52:56.261Z,82.78
2022-11-20T16:56:55.325Z,83.19
2022-11-20T17:00:54.230Z,82.10
2022-11-20T17:04:53.172Z,83.31
2022-11-20T17:08:52.384Z,84.07
2022-11-20T17:12:51.628Z,84.26
2022-11-20T17:16:50.156Z,84.56
2022-11-20T17:20:54.670Z,82.95
2022-11-20T17:24:53.272Z,83.21
2022-11-20T17:28:56.242Z,83.97
2022-11-20T17:32:55.433Z,84.04
2022-11-20T17:36:55.611Z,84.40
2022-11-20T17:40:54.538Z,84.11
2022-11-20T17:44:53.464Z,83.69
2022-11-20T17:48:53.257Z,84.59
2022-11-20T17:52:52.907Z,83.92
2022-11-20T17:57:10.747Z,83.29
2022-11-20T18:01:10.925Z,82.94
2022-11-20T18:05:10.025Z,81.35
2022-11-20T18:09:09.064Z,82.09
2022-11-20T18:13:08.485Z,81.68
2022-11-20T18:17:12.052Z,82.42
2022-11-20T18:21:11.099Z,82.22
2022-11-20T18:25:10.961Z,82.39
2022-11-20T18:29:10.823Z,82.59
2022-11-20T18:33:10.010Z,82.43
2022-11-20T18:37:10.224Z,82.82
2022-11-20T18:41:29.434Z,82.86
2022-11-20T18:45:29.291Z,83.39
2022-11-20T18:49:28.833Z,82.74
2022-11-20T18:53:28.056Z,81.95
2022-11-20T18:57:28.212Z,82.14
2022-11-20T19:01:27.063Z,82.66
2022-11-20T19:05:26.714Z,82.98
2022-11-20T19:09:26.180Z,83.47
2022-11-20T19:13:26.495Z,83.74
2022-11-20T19:17:25.506Z,83.65
2022-11-20T19:21:25.233Z,84.11
2022-11-20T19:25:24.148Z,84.05
2022-11-20T19:29:24.835Z,83.79
2022-11-20T19:33:24.356Z,83.65
2022-11-20T19:37:25.588Z,83.70
2022-11-20T19:41:29.249Z,83.48
2022-11-20T19:45:28.155Z,83.33
2022-11-20T19:49:27.929Z,83.26
2022-11-20T19:53:27.520Z,83.11
2022-11-20T19:57:27.074Z,83.42
2022-11-20T20:01:27.684Z,82.96
2022-11-20T20:05:26.630Z,83.37
2022-11-20T20:09:27.203Z,83.30
2022-11-20T20:13:26.571Z,82.79
2022-11-20T20:17:25.225Z,83.08
2022-11-20T20:21:24.622Z,82.59
2022-11-20T20:25:23.376Z,83.22
2022-11-20T20:29:23.233Z,83.12
2022-11-20T20:33:22.664Z,82.92
2022-11-20T20:37:21.413Z,83.20
2022-11-20T20:41:21.202Z,83.17
2022-11-20T20:45:20.666Z,83.23
2022-11-20T20:49:20.840Z,83.51
2022-11-20T20:53:19.724Z,83.75
2022-11-20T20:57:19.449Z,83.88
2022-11-20T21:01:19.632Z,83.89
2022-11-20T21:05:19.034Z,84.01
2022-11-20T21:09:20.667Z,84.48
2022-11-20T21:12:55.732Z,84.68
2022-11-20T21:16:55.168Z,84.64
2022-11-20T21:21:14.690Z,84.41
2022-11-20T21:24:36.084Z,84.30
2022-11-20T21:28:36.053Z,84.33
2022-11-20T21:32:34.870Z,84.93
2022-11-20T21:36:34.113Z,84.54
2022-11-20T21:40:36.328Z,84.26
2022-11-20T21:44:35.407Z,84.37
2022-11-20T21:48:35.758Z,83.95
2022-11-20T21:52:34.609Z,84.19
2022-11-20T21:56:33.189Z,84.55
2022-11-20T22:00:32.291Z,84.23
2022-11-20T22:04:32.166Z,84.54
2022-11-20T22:08:31.355Z,84.68
2022-11-20T22:12:30.193Z,84.80
2022-11-20T22:16:28.831Z,85.17
2022-11-20T22:20:27.474Z,85.23
2022-11-20T22:24:26.394Z,85.39
2022-11-20T22:28:25.353Z,85.40
2022-11-20T22:32:24.291Z,85.38
2022-11-20T22:36:24.310Z,85.07
2022-11-20T22:40:23.530Z,84.94
2022-11-20T22:44:22.895Z,85.32
2022-11-20T22:48:22.067Z,85.05
2022-11-20T22:52:34.572Z,85.04
2022-11-20T22:56:33.849Z,84.47
2022-11-20T23:00:32.515Z,84.19
2022-11-20T23:04:31.474Z,84.61
2022-11-20T23:08:30.572Z,84.60
2022-11-20T23:12:29.794Z,84.35
2022-11-20T23:16:30.090Z,84.38
2022-11-20T23:20:28.790Z,83.76
2022-11-20T23:24:27.627Z,83.94
2022-11-20T23:28:27.148Z,83.91
2022-11-20T23:32:26.231Z,84.26
2022-11-20T23:36:25.652Z,84.26
2022-11-20T23:40:41.416Z,84.56
2022-11-20T23:44:40.495Z,85.05
2022-11-20T23:48:40.127Z,85.38
2022-11-20T23:52:39.095Z,86.07
2022-11-20T23:56:38.024Z,86.05
